createdAt,value
2018-12-09T00:00:33.793Z,4.33
2018-12-09T00:01:08.787Z,3.87
2018-12-09T00:01:43.216Z,4.27
2018-12-09T00:02:17.209Z,4.87
2018-12-09T00:02:51.443Z,4.65
2018-12-09T00:03:25.383Z,3.87
2018-12-09T00:03:59.230Z,3.97
2018-12-09T00:04:33.070Z,4.10
2018-12-09T00:05:07.174Z,4.17
2018-12-09T00:05:40.995Z,4.70
2018-12-09T00:06:15.032Z,4.10
2018-12-09T00:06:49.555Z,4.03
2018-12-09T00:07:23.431Z,4.63
2018-12-09T00:07:59.255Z,5.00
2018-12-09T00:08:33.174Z,4.30
2018-12-09T00:09:07.392Z,4.90
2018-12-09T00:09:41.193Z,3.60
2018-12-09T00:10:15.470Z,4.13
2018-12-09T00:10:49.494Z,4.70
2018-12-09T00:11:23.241Z,4.53
2018-12-09T00:11:57.074Z,4.17
2018-12-09T00:12:30.918Z,4.63
2018-12-09T00:13:04.774Z,4.40
2018-12-09T00:13:38.765Z,4.20
2018-12-09T00:14:12.738Z,4.50
2018-12-09T00:14:46.526Z,4.07
2018-12-09T00:15:20.523Z,4.70
2018-12-09T00:15:54.411Z,4.50
2018-12-09T00:16:31.302Z,3.87
2018-12-09T00:17:05.683Z,3.83
2018-12-09T00:17:39.461Z,4.63
2018-12-09T00:18:13.402Z,4.47
2018-12-09T00:18:47.186Z,3.63
2018-12-09T00:19:21.041Z,4.10
2018-12-09T00:19:54.889Z,3.77
2018-12-09T00:20:28.877Z,4.67
2018-12-09T00:21:02.754Z,4.57
2018-12-09T00:21:36.858Z,4.10
2018-12-09T00:22:11.670Z,4.23
2018-12-09T00:22:45.742Z,4.20
2018-12-09T00:23:19.638Z,4.30
2018-12-09T00:23:53.702Z,5.00
2018-12-09T00:24:27.634Z,3.87
2018-12-09T00:25:01.485Z,4.40
2018-12-09T00:25:35.362Z,4.97
2018-12-09T00:26:09.355Z,4.40
2018-12-09T00:26:43.301Z,4.50
2018-12-09T00:27:17.306Z,4.00
2018-12-09T00:27:51.263Z,5.33
2018-12-09T00:28:27.261Z,4.17
2018-12-09T00:29:00.983Z,4.20
2018-12-09T00:29:35.009Z,4.30
2018-12-09T00:30:11.236Z,4.97
2018-12-09T00:30:45.333Z,4.27
2018-12-09T00:31:19.311Z,4.63
2018-12-09T00:31:53.113Z,4.57
2018-12-09T00:32:27.051Z,4.57
2018-12-09T00:33:00.890Z,4.50
2018-12-09T00:33:34.895Z,4.30
2018-12-09T00:34:09.091Z,3.80
2018-12-09T00:34:44.518Z,3.97
2018-12-09T00:35:18.649Z,4.43
2018-12-09T00:35:52.750Z,4.63
2018-12-09T00:36:27.421Z,4.17
2018-12-09T00:37:01.434Z,4.97
2018-12-09T00:37:35.491Z,4.23
2018-12-09T00:38:10.338Z,4.63
2018-12-09T00:38:44.200Z,4.47
2018-12-09T00:39:18.779Z,4.23
2018-12-09T00:39:52.776Z,4.07
2018-12-09T00:40:26.765Z,3.60
2018-12-09T00:41:01.430Z,4.30
2018-12-09T00:41:35.385Z,5.00
2018-12-09T00:42:09.328Z,3.77
2018-12-09T00:42:45.194Z,4.63
2018-12-09T00:43:19.075Z,4.30
2018-12-09T00:43:52.857Z,4.47
2018-12-09T00:44:26.740Z,4.53
2018-12-09T00:45:00.657Z,4.53
2018-12-09T00:45:34.566Z,4.13
2018-12-09T00:46:09.712Z,3.80
2018-12-09T00:46:43.741Z,4.47
2018-12-09T00:47:17.626Z,4.53
2018-12-09T00:47:51.670Z,4.40
2018-12-09T00:48:25.857Z,3.77
2018-12-09T00:48:59.784Z,4.10
2018-12-09T00:49:33.661Z,4.10
2018-12-09T00:50:07.516Z,5.00
2018-12-09T00:50:41.243Z,3.97
2018-12-09T00:51:15.231Z,4.60
2018-12-09T00:51:49.138Z,4.50
2018-12-09T00:52:23.008Z,4.30
2018-12-09T00:52:57.265Z,4.93
2018-12-09T00:53:31.156Z,4.30
2018-12-09T00:54:05.075Z,4.40
2018-12-09T00:54:38.937Z,4.70
2018-12-09T00:55:53.771Z,4.03
2018-12-09T00:56:27.547Z,4.87
2018-12-09T00:57:01.517Z,4.07
2018-12-09T00:57:36.516Z,4.53
2018-12-09T00:58:10.681Z,4.87
2018-12-09T00:58:44.543Z,4.47
2018-12-09T00:59:18.811Z,4.60
2018-12-09T00:59:52.799Z,4.70
2018-12-09T01:00:26.766Z,4.60
2018-12-09T01:01:00.837Z,4.77
2018-12-09T01:01:34.591Z,4.23
2018-12-09T01:02:08.560Z,4.77
2018-12-09T01:02:43.021Z,3.87
2018-12-09T01:03:17.170Z,4.77
2018-12-09T01:03:50.969Z,4.20
2018-12-09T01:04:24.859Z,4.23
2018-12-09T01:04:58.636Z,5.40
2018-12-09T01:05:32.518Z,4.42
2018-12-09T01:06:06.490Z,4.77
2018-12-09T01:06:40.445Z,4.13
2018-12-09T01:07:14.302Z,4.87
2018-12-09T01:07:48.278Z,4.33
2018-12-09T01:08:22.126Z,4.67
2018-12-09T01:08:56.029Z,5.33
2018-12-09T01:09:30.081Z,5.53
2018-12-09T01:10:04.871Z,4.53
2018-12-09T01:10:38.799Z,4.70
2018-12-09T01:11:12.908Z,4.80
2018-12-09T01:11:46.659Z,5.73
2018-12-09T01:12:20.740Z,5.30
2018-12-09T01:12:55.717Z,6.10
2018-12-09T01:13:29.670Z,4.70
2018-12-09T01:14:03.718Z,5.47
2018-12-09T01:14:37.719Z,4.97
2018-12-09T01:15:11.909Z,5.63
2018-12-09T01:15:45.866Z,5.27
2018-12-09T01:16:20.110Z,5.33
2018-12-09T01:16:54.068Z,5.80
2018-12-09T01:17:27.925Z,5.93
2018-12-09T01:18:01.844Z,5.20
2018-12-09T01:18:35.671Z,5.33
2018-12-09T01:19:09.731Z,6.07
2018-12-09T01:19:43.555Z,5.40
2018-12-09T01:20:17.510Z,5.10
2018-12-09T01:20:51.363Z,5.60
2018-12-09T01:21:25.165Z,5.00
2018-12-09T01:21:59.179Z,5.07
2018-12-09T01:22:33.101Z,5.37
2018-12-09T01:23:06.901Z,5.77
2018-12-09T01:23:41.203Z,5.20
2018-12-09T01:24:15.034Z,4.80
2018-12-09T01:24:48.829Z,4.93
2018-12-09T01:25:22.779Z,5.40
2018-12-09T01:25:56.666Z,6.30
2018-12-09T01:26:30.755Z,5.63
2018-12-09T01:27:04.740Z,5.53
2018-12-09T01:27:38.530Z,5.40
2018-12-09T01:28:12.306Z,5.12
2018-12-09T01:28:46.155Z,4.97
2018-12-09T01:29:20.284Z,4.80
2018-12-09T01:29:54.198Z,4.70
2018-12-09T01:30:28.269Z,5.50
2018-12-09T01:31:02.110Z,4.70
2018-12-09T01:31:35.980Z,5.43
2018-12-09T01:32:09.861Z,4.93
2018-12-09T01:32:43.988Z,5.20
2018-12-09T01:33:18.096Z,5.43
2018-12-09T01:33:54.334Z,5.33
2018-12-09T01:34:28.360Z,5.20
2018-12-09T01:35:02.313Z,5.00
2018-12-09T01:35:36.413Z,5.15
2018-12-09T01:36:10.470Z,4.83
2018-12-09T01:36:44.223Z,5.37
2018-12-09T01:37:18.460Z,4.87
2018-12-09T01:37:52.459Z,4.70
2018-12-09T01:38:26.517Z,4.97
2018-12-09T01:39:00.938Z,4.80
2018-12-09T01:39:34.918Z,4.50
2018-12-09T01:40:09.257Z,4.93
2018-12-09T01:40:48.795Z,4.43
2018-12-09T01:41:22.682Z,5.87
2018-12-09T01:41:57.042Z,4.03
2018-12-09T01:42:30.873Z,5.10
2018-12-09T01:43:06.821Z,5.53
2018-12-09T01:43:40.584Z,4.83
2018-12-09T01:44:14.451Z,5.03
2018-12-09T01:44:48.230Z,5.53
2018-12-09T01:45:22.158Z,5.37
2018-12-09T01:45:56.178Z,5.25
2018-12-09T01:46:30.006Z,5.60
2018-12-09T01:47:03.988Z,4.60
2018-12-09T01:47:37.782Z,5.03
2018-12-09T01:48:14.982Z,5.13
2018-12-09T01:48:55.427Z,4.60
2018-12-09T01:49:29.310Z,5.05
2018-12-09T01:50:03.410Z,4.97
2018-12-09T01:50:37.233Z,4.53
2018-12-09T01:51:11.251Z,4.35
2018-12-09T01:51:45.010Z,4.78
2018-12-09T01:52:18.939Z,4.70
2018-12-09T01:52:59.395Z,5.10
2018-12-09T01:54:37.360Z,4.70
2018-12-09T01:55:11.369Z,4.30
2018-12-09T01:55:45.387Z,4.60
2018-12-09T01:56:19.350Z,5.43
2018-12-09T01:56:53.862Z,5.33
2018-12-09T01:57:27.761Z,4.87
2018-12-09T01:58:01.662Z,4.50
2018-12-09T01:58:35.565Z,4.67
2018-12-09T01:59:09.616Z,4.50
2018-12-09T01:59:43.565Z,5.42
2018-12-09T02:00:17.549Z,5.28
2018-12-09T02:00:51.315Z,5.12
2018-12-09T02:01:25.361Z,5.05
2018-12-09T02:01:59.560Z,4.33
2018-12-09T02:02:33.401Z,4.42
2018-12-09T02:03:07.395Z,5.43
2018-12-09T02:03:41.375Z,4.17
2018-12-09T02:04:15.985Z,4.65
2018-12-09T02:04:49.874Z,4.92
2018-12-09T02:05:24.003Z,4.92
2018-12-09T02:05:57.811Z,4.83
2018-12-09T02:06:31.892Z,4.43
2018-12-09T02:07:05.709Z,4.70
2018-12-09T02:07:39.769Z,5.10
2018-12-09T02:08:13.596Z,4.40
2018-12-09T02:08:47.593Z,4.43
2018-12-09T02:09:21.406Z,5.10
2018-12-09T02:09:55.302Z,4.95
2018-12-09T02:10:29.199Z,4.33
2018-12-09T02:11:03.077Z,4.33
2018-12-09T02:11:37.145Z,4.15
2018-12-09T02:12:11.105Z,3.83
2018-12-09T02:12:45.148Z,4.13
2018-12-09T02:13:19.343Z,4.85
2018-12-09T02:13:53.170Z,4.00
2018-12-09T02:14:27.095Z,4.50
2018-12-09T02:15:01.106Z,4.45
2018-12-09T02:15:35.056Z,4.92
2018-12-09T02:16:08.951Z,4.10
2018-12-09T02:16:42.882Z,4.28
2018-12-09T02:17:16.932Z,4.53
2018-12-09T02:17:51.058Z,3.90
2018-12-09T02:18:24.865Z,4.80
2018-12-09T02:19:17.714Z,4.40
2018-12-09T02:19:51.701Z,5.05
2018-12-09T02:20:25.638Z,5.90
2018-12-09T02:20:59.565Z,4.80
2018-12-09T02:21:33.581Z,5.08
2018-12-09T02:22:07.456Z,5.20
2018-12-09T02:22:41.248Z,4.42
2018-12-09T02:23:15.149Z,4.87
2018-12-09T02:23:49.106Z,4.40
2018-12-09T02:24:23.291Z,5.00
2018-12-09T02:24:57.205Z,4.67
2018-12-09T02:25:31.105Z,5.53
2018-12-09T02:26:05.234Z,4.67
2018-12-09T02:26:39.071Z,5.50
2018-12-09T02:27:13.028Z,5.00
2018-12-09T02:27:51.081Z,4.57
2018-12-09T02:28:25.225Z,4.75
2018-12-09T02:28:59.191Z,5.12
2018-12-09T02:29:33.157Z,4.87
2018-12-09T02:30:07.156Z,5.15
2018-12-09T02:30:41.167Z,4.17
2018-12-09T02:31:15.278Z,5.37
2018-12-09T02:31:49.161Z,4.35
2018-12-09T02:32:23.104Z,4.83
2018-12-09T02:32:57.259Z,4.30
2018-12-09T02:33:31.710Z,3.40
2018-12-09T02:34:06.008Z,3.97
2018-12-09T02:34:51.726Z,3.83
2018-12-09T02:35:25.600Z,4.55
2018-12-09T02:35:59.358Z,4.37
2018-12-09T02:36:33.337Z,3.75
2018-12-09T02:37:07.498Z,4.55
2018-12-09T02:37:41.585Z,4.20
2018-12-09T02:38:15.471Z,4.47
2018-12-09T02:38:49.841Z,3.57
2018-12-09T02:39:23.931Z,4.37
2018-12-09T02:39:57.759Z,3.77
2018-12-09T02:40:31.757Z,4.17
2018-12-09T02:41:05.600Z,4.25
2018-12-09T02:41:46.395Z,3.60
2018-12-09T02:42:20.263Z,3.43
2018-12-09T02:42:54.107Z,3.20
2018-12-09T02:43:28.094Z,3.40
2018-12-09T02:44:02.004Z,2.80
2018-12-09T02:44:35.875Z,3.02
2018-12-09T02:45:09.843Z,2.55
2018-12-09T02:45:46.022Z,2.42
2018-12-09T02:46:19.910Z,1.87
2018-12-09T02:46:54.133Z,2.10
2018-12-09T02:47:28.038Z,1.70
2018-12-09T02:48:02.456Z,2.20
2018-12-09T02:48:36.413Z,1.80
2018-12-09T02:49:10.490Z,1.70
2018-12-09T02:49:44.709Z,1.90
2018-12-09T02:50:18.573Z,1.90
2018-12-09T02:50:52.410Z,1.77
2018-12-09T02:51:26.418Z,1.65
2018-12-09T02:52:00.479Z,1.92
2018-12-09T02:52:34.417Z,2.00
2018-12-09T02:53:08.538Z,1.95
2018-12-09T02:53:42.248Z,1.77
2018-12-09T02:54:16.142Z,2.00
2018-12-09T02:54:49.946Z,2.08
2018-12-09T02:55:23.728Z,2.37
2018-12-09T02:55:57.735Z,2.05
2018-12-09T02:56:31.762Z,2.62
2018-12-09T02:57:05.569Z,2.02
2018-12-09T02:57:39.526Z,2.30
2018-12-09T02:58:13.409Z,2.10
2018-12-09T02:58:47.326Z,2.70
2018-12-09T02:59:21.124Z,2.45
2018-12-09T02:59:55.230Z,2.70
2018-12-09T03:00:29.083Z,2.98
2018-12-09T03:01:03.065Z,3.20
2018-12-09T03:01:36.992Z,2.70
2018-12-09T03:02:10.804Z,3.47
2018-12-09T03:02:44.766Z,2.77
2018-12-09T03:03:18.804Z,3.50
2018-12-09T03:03:52.534Z,3.33
2018-12-09T03:04:26.482Z,3.50
2018-12-09T03:05:00.400Z,3.22
2018-12-09T03:05:34.469Z,3.33
2018-12-09T03:06:08.309Z,3.55
2018-12-09T03:06:42.052Z,3.45
2018-12-09T03:07:15.898Z,3.45
2018-12-09T03:07:49.894Z,3.20
2018-12-09T03:08:23.959Z,3.92
2018-12-09T03:08:57.835Z,3.75
2018-12-09T03:09:31.720Z,3.30
2018-12-09T03:10:05.984Z,3.72
2018-12-09T03:10:39.986Z,3.87
2018-12-09T03:11:14.190Z,4.15
2018-12-09T03:11:48.117Z,3.60
2018-12-09T03:12:21.821Z,3.58
2018-12-09T03:12:55.855Z,3.83
2018-12-09T03:13:29.635Z,4.33
2018-12-09T03:14:03.611Z,3.95
2018-12-09T03:14:37.587Z,4.10
2018-12-09T03:15:11.690Z,4.25
2018-12-09T03:15:45.604Z,3.62
2018-12-09T03:16:19.578Z,4.10
2018-12-09T03:16:53.581Z,3.72
2018-12-09T03:17:27.502Z,3.95
2018-12-09T03:18:01.445Z,3.75
2018-12-09T03:18:35.317Z,4.47
2018-12-09T03:19:09.190Z,5.15
2018-12-09T03:19:43.057Z,3.70
2018-12-09T03:20:17.035Z,3.83
2018-12-09T03:20:50.999Z,3.70
2018-12-09T03:21:24.951Z,4.15
2018-12-09T03:21:58.991Z,4.10
2018-12-09T03:22:32.953Z,4.00
2018-12-09T03:23:06.936Z,3.85
2018-12-09T03:23:41.152Z,4.62
2018-12-09T03:24:15.419Z,3.47
2018-12-09T03:24:49.669Z,4.00
2018-12-09T03:25:23.619Z,4.08
2018-12-09T03:25:57.803Z,3.75
2018-12-09T03:26:32.065Z,3.40
2018-12-09T03:27:06.376Z,5.03
2018-12-09T03:27:40.311Z,4.47
2018-12-09T03:28:14.257Z,4.37
2018-12-09T03:28:48.346Z,4.50
2018-12-09T03:29:22.163Z,4.10
2018-12-09T03:29:56.104Z,4.30
2018-12-09T03:30:30.102Z,4.22
2018-12-09T03:31:04.037Z,4.58
2018-12-09T03:31:38.043Z,4.83
2018-12-09T03:32:11.986Z,3.72
2018-12-09T03:32:46.100Z,3.87
2018-12-09T03:33:20.041Z,3.40
2018-12-09T03:33:53.940Z,3.35
2018-12-09T03:34:31.153Z,3.77
2018-12-09T03:35:05.721Z,3.10
2018-12-09T03:35:39.719Z,3.30
2018-12-09T03:36:13.652Z,3.37
2018-12-09T03:36:47.439Z,3.33
2018-12-09T03:37:21.211Z,2.67
2018-12-09T03:37:55.257Z,2.50
2018-12-09T03:38:29.377Z,2.70
2018-12-09T03:39:05.321Z,2.37
2018-12-09T03:39:39.178Z,3.37
2018-12-09T03:40:13.153Z,2.40
2018-12-09T03:40:47.158Z,2.85
2018-12-09T03:41:20.984Z,3.10
2018-12-09T03:41:54.903Z,2.60
2018-12-09T03:42:29.266Z,2.30
2018-12-09T03:43:03.775Z,2.20
2018-12-09T03:43:37.671Z,2.37
2018-12-09T03:44:11.580Z,2.20
2018-12-09T03:44:45.358Z,2.37
2018-12-09T03:45:19.195Z,2.42
2018-12-09T03:45:56.692Z,2.00
2018-12-09T03:46:30.896Z,2.75
2018-12-09T03:47:05.173Z,2.42
2018-12-09T03:47:39.412Z,2.35
2018-12-09T03:48:13.537Z,2.65
2018-12-09T03:48:47.631Z,2.20
2018-12-09T03:49:21.676Z,2.58
2018-12-09T03:49:55.586Z,2.40
2018-12-09T03:50:29.587Z,2.10
2018-12-09T03:51:03.560Z,2.02
2018-12-09T03:51:37.908Z,1.90
2018-12-09T03:52:12.104Z,1.70
2018-12-09T03:52:46.431Z,1.80
2018-12-09T03:53:20.216Z,2.42
2018-12-09T03:53:54.322Z,1.85
2018-12-09T03:54:28.228Z,1.85
2018-12-09T03:55:02.697Z,2.00
2018-12-09T03:55:36.576Z,1.77
2018-12-09T03:56:10.633Z,1.95
2018-12-09T03:56:44.458Z,1.70
2018-12-09T03:57:18.498Z,1.85
2018-12-09T03:57:52.420Z,2.47
2018-12-09T03:58:28.160Z,2.02
2018-12-09T03:59:02.160Z,1.82
2018-12-09T03:59:36.123Z,1.52
2018-12-09T04:00:09.953Z,1.70
2018-12-09T04:00:43.909Z,1.47
2018-12-09T04:01:17.785Z,1.60
2018-12-09T04:01:51.905Z,1.62
2018-12-09T04:02:25.757Z,1.92
2018-12-09T04:02:59.630Z,1.70
2018-12-09T04:03:33.658Z,1.67
2018-12-09T04:04:07.694Z,1.47
2018-12-09T04:04:41.555Z,1.67
2018-12-09T04:05:15.870Z,1.30
2018-12-09T04:05:49.897Z,1.70
2018-12-09T04:06:23.900Z,1.70
2018-12-09T04:06:57.843Z,1.47
2018-12-09T04:07:31.848Z,1.55
2018-12-09T04:08:05.978Z,1.60
2018-12-09T04:08:40.115Z,1.60
2018-12-09T04:09:14.214Z,1.50
2018-12-09T04:09:48.189Z,1.95
2018-12-09T04:10:22.319Z,1.60
2018-12-09T04:10:56.269Z,1.87
2018-12-09T04:11:30.145Z,1.20
2018-12-09T04:12:04.162Z,1.27
2018-12-09T04:12:38.022Z,1.32
2018-12-09T04:13:12.079Z,1.42
2018-12-09T04:13:46.137Z,1.35
2018-12-09T04:14:20.070Z,1.82
2018-12-09T04:14:54.108Z,1.87
2018-12-09T04:15:28.284Z,1.27
2018-12-09T04:16:02.162Z,1.35
2018-12-09T04:16:36.182Z,1.10
2018-12-09T04:17:10.166Z,1.45
2018-12-09T04:17:43.825Z,1.45
2018-12-09T04:18:17.791Z,1.30
2018-12-09T04:18:51.999Z,1.55
2018-12-09T04:19:25.910Z,1.30
2018-12-09T04:19:59.991Z,1.55
2018-12-09T04:20:33.885Z,1.90
2018-12-09T04:21:07.678Z,1.17
2018-12-09T04:21:41.518Z,1.55
2018-12-09T04:22:15.716Z,1.75
2018-12-09T04:22:49.506Z,1.70
2018-12-09T04:23:23.265Z,1.50
2018-12-09T04:23:57.222Z,1.20
2018-12-09T04:24:31.006Z,1.42
2018-12-09T04:25:05.015Z,1.92
2018-12-09T04:25:39.054Z,1.85
2018-12-09T04:26:12.931Z,1.65
2018-12-09T04:26:46.881Z,2.08
2018-12-09T04:27:20.810Z,1.57
2018-12-09T04:27:54.743Z,1.72
2018-12-09T04:28:28.579Z,1.80
2018-12-09T04:29:02.568Z,1.60
2018-12-09T04:29:36.591Z,1.90
2018-12-09T04:30:10.628Z,1.87
2018-12-09T04:30:45.353Z,1.52
2018-12-09T04:31:19.204Z,1.40
2018-12-09T04:31:53.536Z,1.77
2018-12-09T04:32:27.581Z,1.85
2018-12-09T04:33:01.750Z,1.92
2018-12-09T04:33:35.687Z,1.82
2018-12-09T04:34:09.863Z,1.80
2018-12-09T04:34:44.014Z,1.40
2018-12-09T04:35:18.239Z,1.40
2018-12-09T04:35:52.023Z,1.82
2018-12-09T04:36:25.927Z,1.95
2018-12-09T04:36:59.655Z,1.82
2018-12-09T04:37:33.747Z,1.70
2018-12-09T04:38:07.582Z,2.10
2018-12-09T04:38:41.755Z,1.60
2018-12-09T04:39:15.750Z,2.25
2018-12-09T04:39:49.819Z,1.60
2018-12-09T04:40:23.798Z,2.05
2018-12-09T04:40:57.763Z,1.72
2018-12-09T04:41:31.729Z,1.77
2018-12-09T04:42:05.764Z,1.90
2018-12-09T04:42:39.591Z,1.60
2018-12-09T04:43:13.354Z,1.70
2018-12-09T04:43:47.246Z,2.05
2018-12-09T04:44:21.177Z,2.10
2018-12-09T04:44:55.203Z,2.05
2018-12-09T04:45:29.032Z,2.20
2018-12-09T04:46:03.130Z,2.15
2018-12-09T04:46:37.076Z,1.90
2018-12-09T04:47:10.886Z,2.12
2018-12-09T04:47:44.892Z,2.02
2018-12-09T04:48:18.709Z,2.58
2018-12-09T04:48:52.612Z,2.58
2018-12-09T04:49:26.432Z,2.17
2018-12-09T04:50:00.772Z,2.55
2018-12-09T04:50:34.673Z,2.40
2018-12-09T04:51:08.492Z,2.10
2018-12-09T04:51:55.203Z,2.10
2018-12-09T04:52:28.909Z,1.98
2018-12-09T04:53:02.840Z,2.17
2018-12-09T04:53:36.648Z,2.52
2018-12-09T04:54:10.633Z,1.92
2018-12-09T04:54:44.495Z,2.60
2018-12-09T04:55:18.357Z,2.60
2018-12-09T04:55:52.284Z,2.33
2018-12-09T04:56:26.437Z,1.92
2018-12-09T04:57:00.261Z,2.52
2018-12-09T04:57:35.022Z,2.27
2018-12-09T04:58:08.973Z,2.37
2018-12-09T04:58:57.398Z,2.58
2018-12-09T04:59:33.294Z,2.72
2018-12-09T05:00:18.478Z,2.05
2018-12-09T05:00:53.925Z,2.02
2018-12-09T05:01:27.838Z,2.55
2018-12-09T05:02:02.186Z,2.50
2018-12-09T05:02:36.251Z,2.47
2018-12-09T05:03:10.676Z,2.30
2018-12-09T05:03:44.579Z,2.30
2018-12-09T05:04:18.837Z,2.20
2018-12-09T05:04:52.663Z,2.10
2018-12-09T05:05:27.044Z,2.55
2018-12-09T05:06:01.184Z,2.70
2018-12-09T05:06:35.639Z,2.20
2018-12-09T05:07:09.556Z,2.05
2018-12-09T05:07:43.960Z,2.55
2018-12-09T05:08:18.014Z,2.20
2018-12-09T05:08:52.123Z,2.00
2018-12-09T05:09:26.321Z,2.25
2018-12-09T05:10:00.189Z,1.92
2018-12-09T05:10:34.078Z,2.02
2018-12-09T05:11:08.255Z,1.95
2018-12-09T05:11:42.393Z,1.98
2018-12-09T05:12:16.579Z,1.80
2018-12-09T05:12:50.454Z,2.67
2018-12-09T05:13:24.370Z,2.30
2018-12-09T05:13:58.344Z,2.50
2018-12-09T05:14:32.196Z,2.20
2018-12-09T05:15:06.561Z,2.75
2018-12-09T05:15:40.246Z,2.55
2018-12-09T05:16:14.133Z,1.90
2018-12-09T05:16:48.114Z,2.60
2018-12-09T05:17:22.118Z,2.15
2018-12-09T05:17:56.017Z,2.17
2018-12-09T05:18:29.778Z,2.00
2018-12-09T05:19:05.479Z,2.00
2018-12-09T05:19:42.054Z,2.40
2018-12-09T05:20:16.068Z,3.02
2018-12-09T05:20:50.067Z,2.27
2018-12-09T05:21:23.988Z,2.40
2018-12-09T05:21:57.884Z,2.58
2018-12-09T05:22:31.682Z,2.67
2018-12-09T05:23:05.639Z,2.47
2018-12-09T05:23:39.545Z,2.40
2018-12-09T05:24:13.482Z,2.27
2018-12-09T05:24:47.333Z,2.15
2018-12-09T05:25:21.253Z,2.62
2018-12-09T05:25:55.160Z,2.12
2018-12-09T05:26:28.994Z,2.35
2018-12-09T05:27:03.156Z,2.00
2018-12-09T05:27:36.954Z,2.58
2018-12-09T05:28:10.907Z,1.98
2018-12-09T05:28:44.887Z,1.87
2018-12-09T05:29:18.842Z,2.27
2018-12-09T05:29:52.598Z,2.00
2018-12-09T05:30:26.458Z,2.37
2018-12-09T05:31:00.316Z,2.20
2018-12-09T05:31:34.124Z,2.00
2018-12-09T05:32:08.146Z,2.35
2018-12-09T05:32:42.294Z,1.75
2018-12-09T05:33:16.285Z,2.22
2018-12-09T05:33:50.253Z,2.30
2018-12-09T05:34:24.114Z,2.33
2018-12-09T05:34:58.162Z,2.50
2018-12-09T05:35:32.195Z,2.45
2018-12-09T05:36:06.355Z,2.37
2018-12-09T05:36:40.392Z,2.40
2018-12-09T05:37:14.386Z,2.00
2018-12-09T05:37:48.256Z,2.50
2018-12-09T05:38:22.097Z,2.37
2018-12-09T05:38:55.976Z,2.65
2018-12-09T05:39:29.899Z,2.80
2018-12-09T05:40:03.901Z,2.15
2018-12-09T05:40:37.835Z,2.08
2018-12-09T05:41:11.739Z,2.15
2018-12-09T05:41:45.726Z,2.30
2018-12-09T05:42:19.684Z,2.30
2018-12-09T05:42:53.491Z,2.00
2018-12-09T05:43:27.538Z,2.83
2018-12-09T05:44:01.458Z,2.08
2018-12-09T05:44:35.385Z,2.30
2018-12-09T05:45:09.194Z,2.25
2018-12-09T05:45:43.674Z,2.17
2018-12-09T05:46:17.825Z,2.02
2018-12-09T05:46:52.232Z,1.72
2018-12-09T05:47:26.049Z,1.82
2018-12-09T05:48:00.463Z,2.15
2018-12-09T05:48:34.354Z,2.17
2018-12-09T05:49:08.401Z,2.30
2018-12-09T05:49:42.245Z,2.50
2018-12-09T05:50:16.542Z,2.05
2018-12-09T05:50:50.308Z,2.50
2018-12-09T05:51:31.602Z,2.27
2018-12-09T05:52:05.336Z,2.15
2018-12-09T05:52:39.397Z,2.47
2018-12-09T05:53:13.305Z,2.27
2018-12-09T05:53:47.085Z,3.05
2018-12-09T05:54:20.879Z,2.55
2018-12-09T05:54:54.968Z,2.72
2018-12-09T05:55:28.920Z,2.42
2018-12-09T05:56:03.015Z,3.12
2018-12-09T05:56:37.108Z,2.42
2018-12-09T05:57:11.145Z,2.52
2018-12-09T05:57:45.067Z,2.95
2018-12-09T05:58:21.127Z,2.67
2018-12-09T05:58:54.954Z,2.37
2018-12-09T05:59:29.045Z,2.50
2018-12-09T06:00:03.790Z,2.83
2018-12-09T06:00:37.671Z,3.52
2018-12-09T06:01:11.907Z,2.50
2018-12-09T06:01:45.802Z,3.02
2018-12-09T06:02:31.190Z,2.52
2018-12-09T06:03:04.879Z,2.60
2018-12-09T06:03:38.666Z,2.75
2018-12-09T06:04:56.656Z,2.40
2018-12-09T06:05:31.364Z,2.85
2018-12-09T06:06:05.200Z,2.45
2018-12-09T06:06:40.257Z,3.20
2018-12-09T06:07:14.210Z,2.92
2018-12-09T06:07:48.095Z,2.83
2018-12-09T06:08:21.918Z,2.70
2018-12-09T06:08:56.039Z,3.27
2018-12-09T06:09:29.943Z,3.40
2018-12-09T06:10:04.482Z,3.55
2018-12-09T06:10:38.207Z,2.75
2018-12-09T06:11:12.110Z,3.33
2018-12-09T06:11:46.184Z,2.87
2018-12-09T06:12:19.925Z,3.25
2018-12-09T06:12:53.875Z,2.98
2018-12-09T06:13:27.734Z,2.90
2018-12-09T06:14:01.686Z,3.05
2018-12-09T06:14:35.403Z,3.40
2018-12-09T06:15:09.460Z,3.83
2018-12-09T06:15:43.542Z,3.42
2018-12-09T06:16:18.039Z,3.25
2018-12-09T06:16:52.107Z,3.35
2018-12-09T06:17:26.170Z,3.40
2018-12-09T06:18:00.271Z,3.20
2018-12-09T06:18:34.271Z,3.58
2018-12-09T06:19:08.255Z,3.42
2018-12-09T06:19:42.131Z,3.58
2018-12-09T06:20:15.955Z,3.27
2018-12-09T06:20:50.018Z,3.30
2018-12-09T06:21:24.209Z,3.52
2018-12-09T06:21:58.203Z,3.05
2018-12-09T06:22:32.113Z,3.50
2018-12-09T06:23:05.942Z,4.05
2018-12-09T06:23:39.798Z,3.45
2018-12-09T06:24:13.655Z,3.40
2018-12-09T06:24:47.771Z,3.80
2018-12-09T06:25:25.190Z,2.98
2018-12-09T06:25:59.399Z,3.30
2018-12-09T06:26:33.264Z,3.87
2018-12-09T06:27:07.072Z,3.98
2018-12-09T06:27:40.917Z,3.70
2018-12-09T06:28:14.830Z,3.47
2018-12-09T06:28:48.900Z,3.70
2018-12-09T06:29:22.893Z,3.72
2018-12-09T06:29:56.771Z,3.75
2018-12-09T06:30:30.762Z,3.70
2018-12-09T06:31:04.662Z,4.20
2018-12-09T06:31:38.659Z,3.55
2018-12-09T06:32:12.644Z,3.45
2018-12-09T06:32:46.653Z,3.62
2018-12-09T06:33:23.665Z,3.77
2018-12-09T06:33:58.001Z,3.50
2018-12-09T06:34:32.916Z,3.98
2018-12-09T06:35:08.171Z,3.42
2018-12-09T06:35:42.360Z,3.98
2018-12-09T06:36:16.106Z,4.03
2018-12-09T06:36:49.990Z,3.95
2018-12-09T06:37:23.759Z,3.65
2018-12-09T06:37:57.663Z,3.30
2018-12-09T06:38:31.434Z,4.20
2018-12-09T06:39:05.582Z,3.55
2018-12-09T06:39:39.510Z,3.75
2018-12-09T06:40:14.887Z,3.70
2018-12-09T06:40:49.316Z,4.10
2018-12-09T06:41:23.250Z,4.80
2018-12-09T06:41:57.169Z,4.28
2018-12-09T06:42:31.218Z,4.20
2018-12-09T06:43:05.111Z,4.25
2018-12-09T06:43:39.041Z,4.42
2018-12-09T06:44:12.954Z,4.08
2018-12-09T06:44:46.938Z,4.42
2018-12-09T06:45:20.824Z,4.35
2018-12-09T06:45:54.916Z,4.55
2018-12-09T06:46:28.773Z,4.97
2018-12-09T06:47:02.597Z,4.05
2018-12-09T06:47:36.585Z,3.87
2018-12-09T06:48:10.799Z,3.58
2018-12-09T06:48:44.659Z,4.87
2018-12-09T06:49:18.517Z,3.95
2018-12-09T06:49:52.410Z,4.05
2018-12-09T06:50:26.399Z,4.05
2018-12-09T06:51:00.134Z,5.08
2018-12-09T06:51:33.961Z,4.42
2018-12-09T06:52:07.840Z,4.12
2018-12-09T06:52:41.775Z,4.00
2018-12-09T06:53:16.256Z,4.08
2018-12-09T06:53:51.967Z,4.35
2018-12-09T06:54:26.389Z,3.30
2018-12-09T06:55:00.363Z,4.40
2018-12-09T06:55:34.215Z,4.08
2018-12-09T06:56:08.074Z,4.35
2018-12-09T06:56:42.466Z,4.37
2018-12-09T06:57:16.474Z,4.00
2018-12-09T06:57:50.229Z,3.80
2018-12-09T06:58:24.055Z,3.90
2018-12-09T06:58:58.037Z,3.50
2018-12-09T06:59:32.068Z,4.65
2018-12-09T07:00:08.110Z,4.42
2018-12-09T07:00:42.306Z,4.28
2018-12-09T07:01:16.313Z,3.65
2018-12-09T07:01:50.170Z,4.45
2018-12-09T07:02:24.070Z,3.85
2018-12-09T07:02:58.061Z,4.05
2018-12-09T07:03:31.857Z,4.62
2018-12-09T07:04:05.958Z,5.08
2018-12-09T07:04:40.755Z,4.78
2018-12-09T07:05:15.385Z,4.05
2018-12-09T07:05:49.613Z,4.17
2018-12-09T07:06:23.715Z,4.30
2018-12-09T07:06:57.514Z,3.90
2018-12-09T07:07:31.414Z,4.33
2018-12-09T07:08:05.237Z,4.03
2018-12-09T07:08:39.450Z,3.85
2018-12-09T07:09:13.317Z,4.42
2018-12-09T07:09:47.174Z,4.05
2018-12-09T07:10:21.141Z,3.77
2018-12-09T07:10:55.322Z,4.25
2018-12-09T07:11:29.359Z,4.28
2018-12-09T07:12:03.342Z,4.03
2018-12-09T07:12:37.583Z,4.03
2018-12-09T07:13:11.486Z,3.85
2018-12-09T07:13:45.246Z,4.05
2018-12-09T07:14:19.888Z,3.85
2018-12-09T07:14:53.649Z,4.95
2018-12-09T07:15:27.934Z,4.65
2018-12-09T07:16:02.149Z,4.87
2018-12-09T07:16:36.178Z,3.87
2018-12-09T07:17:10.115Z,4.15
2018-12-09T07:17:44.264Z,3.60
2018-12-09T07:18:18.723Z,4.37
2018-12-09T07:18:52.918Z,4.22
2018-12-09T07:19:27.193Z,4.78
2018-12-09T07:20:08.685Z,4.42
2018-12-09T07:20:42.762Z,4.58
2018-12-09T07:21:16.813Z,4.00
2018-12-09T07:21:50.751Z,4.50
2018-12-09T07:22:24.754Z,4.75
2018-12-09T07:22:58.699Z,4.20
2018-12-09T07:23:32.781Z,5.03
2018-12-09T07:24:06.807Z,4.70
2018-12-09T07:24:40.747Z,4.90
2018-12-09T07:25:14.638Z,4.08
2018-12-09T07:25:48.535Z,4.25
2018-12-09T07:26:22.591Z,4.10
2018-12-09T07:26:56.559Z,4.80
2018-12-09T07:27:30.377Z,4.35
2018-12-09T07:28:04.313Z,4.80
2018-12-09T07:28:38.166Z,4.67
2018-12-09T07:29:12.345Z,3.90
2018-12-09T07:29:46.245Z,4.25
2018-12-09T07:30:20.363Z,4.20
2018-12-09T07:30:54.117Z,4.62
2018-12-09T07:31:27.995Z,3.55
2018-12-09T07:32:01.986Z,4.30
2018-12-09T07:32:35.985Z,3.70
2018-12-09T07:33:09.735Z,4.70
2018-12-09T07:33:43.663Z,4.15
2018-12-09T07:34:17.573Z,3.33
2018-12-09T07:34:51.625Z,4.50
2018-12-09T07:35:25.916Z,4.37
2018-12-09T07:35:59.622Z,4.28
2018-12-09T07:36:33.427Z,4.25
2018-12-09T07:37:07.429Z,3.42
2018-12-09T07:37:41.530Z,4.15
2018-12-09T07:38:15.538Z,3.77